Uspallata, Argentina
Current Conditions -  °F | °C
As of 1:00 PM on Thursday 18 Dec 2014 (Local Time) from SAME Reporting Station
Clear Clear  
Wind Chill: 86°   Ceiling: Unl
Heat Index: 86°   Visibility: 6mi
Dew Point: 52°   Wind: 13mph
Humidity: 31%   Direction: 360°N
Pressure: 29.88"   Gusts: NA
Location:  32.59°S, 69.35°W
Report Text: SAME 181600Z 36011KT CAVOK 30/11 Q1012
Loading
Personal Weather Stations






























Interactive Weather Map New forecast layout! Learn more

10-Day Weather Forecast

Advertisements
Track Severe Weather on mobile